createdAt,value
2018-11-27T00:00:27.498Z,17.50
2018-11-27T00:02:59.640Z,17.53
2018-11-27T00:05:28.058Z,17.23
2018-11-27T00:07:56.376Z,17.97
2018-11-27T00:10:24.594Z,18.13
2018-11-27T00:12:52.893Z,17.20
2018-11-27T00:15:21.186Z,18.20
2018-11-27T00:17:49.441Z,17.70
2018-11-27T00:20:17.621Z,17.87
2018-11-27T00:22:45.881Z,18.67
2018-11-27T00:25:14.688Z,16.43
2018-11-27T00:27:42.986Z,18.13
2018-11-27T00:30:12.681Z,17.37
2018-11-27T00:32:41.030Z,17.73
2018-11-27T00:35:10.557Z,17.37
2018-11-27T00:37:38.834Z,16.60
2018-11-27T00:40:22.413Z,17.77
2018-11-27T00:42:57.201Z,17.70
2018-11-27T00:45:25.358Z,17.33
2018-11-27T00:47:59.955Z,17.50
2018-11-27T00:50:28.157Z,16.60
2018-11-27T00:52:56.371Z,17.13
2018-11-27T00:55:24.598Z,17.30
2018-11-27T00:57:52.973Z,16.23
2018-11-27T01:00:21.626Z,16.53
2018-11-27T01:02:49.853Z,16.43
2018-11-27T01:05:18.916Z,16.77
2018-11-27T01:07:47.281Z,16.87
2018-11-27T01:10:15.989Z,17.40
2018-11-27T01:12:44.266Z,17.40
2018-11-27T01:15:12.872Z,17.43
2018-11-27T01:17:41.729Z,17.13
2018-11-27T01:20:12.447Z,16.33
2018-11-27T01:22:40.654Z,16.90
2018-11-27T01:25:09.175Z,17.23
2018-11-27T01:27:37.645Z,16.40
2018-11-27T01:30:07.715Z,15.73
2018-11-27T01:32:35.934Z,15.50
2018-11-27T01:35:10.764Z,17.17
2018-11-27T01:37:38.991Z,16.30
2018-11-27T01:40:10.107Z,17.07
2018-11-27T01:42:38.376Z,16.33
2018-11-27T01:45:07.595Z,16.23
2018-11-27T01:47:35.827Z,16.47
2018-11-27T01:50:04.117Z,15.57
2018-11-27T01:52:32.343Z,17.07
2018-11-27T01:55:00.531Z,16.27
2018-11-27T01:57:28.780Z,15.67
2018-11-27T01:59:56.951Z,16.87
2018-11-27T02:02:25.176Z,15.07
2018-11-27T02:04:53.331Z,17.03
2018-11-27T02:07:21.564Z,15.57
2018-11-27T02:09:49.820Z,16.00
2018-11-27T02:12:17.996Z,15.67
2018-11-27T02:14:46.166Z,16.43
2018-11-27T02:17:14.381Z,15.40
2018-11-27T02:19:42.657Z,15.87
2018-11-27T02:22:10.888Z,16.80
2018-11-27T02:24:39.132Z,17.50
2018-11-27T02:27:07.370Z,16.33
2018-11-27T02:29:42.060Z,16.07
2018-11-27T02:32:10.272Z,16.33
2018-11-27T02:34:38.603Z,15.53
2018-11-27T02:37:06.882Z,15.53
2018-11-27T02:39:35.241Z,15.73
2018-11-27T02:42:03.404Z,16.17
2018-11-27T02:44:31.651Z,15.60
2018-11-27T02:46:59.846Z,16.17
2018-11-27T02:49:28.117Z,15.73
2018-11-27T02:51:56.359Z,17.43
2018-11-27T02:54:24.552Z,15.90
2018-11-27T02:56:52.813Z,16.50
2018-11-27T02:59:21.116Z,16.67
2018-11-27T03:01:49.365Z,15.83
2018-11-27T03:04:17.592Z,16.57
2018-11-27T03:06:45.820Z,15.77
2018-11-27T03:09:14.035Z,16.60
2018-11-27T03:11:42.252Z,16.07
2018-11-27T03:14:10.431Z,16.57
2018-11-27T03:16:38.657Z,16.43
2018-11-27T03:19:06.890Z,16.17
2018-11-27T03:21:35.083Z,15.60
2018-11-27T03:24:03.321Z,16.93
2018-11-27T03:26:31.544Z,15.47
2018-11-27T03:31:34.541Z,17.47
2018-11-27T03:34:02.752Z,17.20
2018-11-27T03:36:31.024Z,15.60
2018-11-27T03:38:59.248Z,15.93
2018-11-27T03:41:27.496Z,15.90
2018-11-27T03:43:55.670Z,16.80
2018-11-27T03:46:23.824Z,18.03
2018-11-27T03:48:52.055Z,16.70
2018-11-27T03:51:20.272Z,17.10
2018-11-27T03:53:48.478Z,16.17
2018-11-27T03:56:16.649Z,16.83
2018-11-27T03:58:44.862Z,17.30
2018-11-27T04:01:13.076Z,16.37
2018-11-27T04:03:41.358Z,18.27
2018-11-27T04:06:09.616Z,16.47
2018-11-27T04:08:37.843Z,16.60
2018-11-27T04:11:06.204Z,15.83
2018-11-27T04:13:34.789Z,16.50
2018-11-27T04:16:09.298Z,17.00
2018-11-27T04:18:37.523Z,16.47
2018-11-27T04:21:05.874Z,17.23
2018-11-27T04:23:34.172Z,16.40
2018-11-27T04:26:02.495Z,15.73
2018-11-27T04:28:30.818Z,16.13
2018-11-27T04:30:59.084Z,14.77
2018-11-27T04:33:27.408Z,16.23
2018-11-27T04:35:55.656Z,15.47
2018-11-27T04:38:23.895Z,15.67
2018-11-27T04:40:52.142Z,15.70
2018-11-27T04:43:20.373Z,16.80
2018-11-27T04:45:48.642Z,16.07
2018-11-27T04:48:16.861Z,15.57
2018-11-27T04:50:45.144Z,15.47
2018-11-27T04:53:13.378Z,15.97
2018-11-27T04:55:41.645Z,14.07
2018-11-27T04:58:10.568Z,14.53
2018-11-27T05:00:51.229Z,15.13
2018-11-27T05:06:08.863Z,16.03
2018-11-27T05:08:43.148Z,17.63
2018-11-27T05:11:11.520Z,15.23
2018-11-27T05:19:19.072Z,15.47
2018-11-27T05:21:47.471Z,16.07
2018-11-27T05:24:15.828Z,16.73
2018-11-27T05:26:44.016Z,16.03
2018-11-27T05:29:12.200Z,15.63
2018-11-27T05:31:45.282Z,15.87
2018-11-27T05:34:17.659Z,15.73
2018-11-27T05:36:46.166Z,14.80
2018-11-27T05:39:15.196Z,14.77
2018-11-27T11:31:40.098Z,11.93
2018-11-27T11:34:08.550Z,13.03
2018-11-27T11:36:40.660Z,11.67
2018-11-27T11:39:10.293Z,13.10
2018-11-27T11:41:38.973Z,12.60
2018-11-27T11:44:07.547Z,12.97
2018-11-27T11:46:36.209Z,13.17
2018-11-27T11:49:04.819Z,12.87
2018-11-27T11:51:33.752Z,12.77
2018-11-27T11:54:02.205Z,12.67
2018-11-27T11:56:30.848Z,12.97
2018-11-27T11:58:59.618Z,12.63
2018-11-27T12:01:28.219Z,12.07
2018-11-27T12:03:56.806Z,12.47
2018-11-27T12:06:25.320Z,13.03
2018-11-27T12:08:53.943Z,11.77
2018-11-27T12:11:22.459Z,11.70
2018-11-27T12:13:51.089Z,13.93
2018-11-27T12:16:19.631Z,13.37
2018-11-27T12:18:48.211Z,12.70
2018-11-27T12:21:16.767Z,13.27
2018-11-27T12:23:45.311Z,14.20
2018-11-27T12:26:13.812Z,14.80
2018-11-27T12:28:42.396Z,14.87
2018-11-27T12:31:10.981Z,14.90
2018-11-27T12:33:39.562Z,14.93
2018-11-27T12:36:08.140Z,16.40
2018-11-27T12:38:36.711Z,16.17
2018-11-27T12:41:10.218Z,18.23
2018-11-27T12:43:34.664Z,18.03
2018-11-27T12:46:03.390Z,17.67
2018-11-27T12:48:32.015Z,17.97
2018-11-27T12:51:00.665Z,17.93
2018-11-27T12:53:29.316Z,19.43
2018-11-27T12:55:57.964Z,17.97
2018-11-27T12:58:26.540Z,18.57
2018-11-27T13:00:55.194Z,19.80
2018-11-27T13:03:23.765Z,19.93
2018-11-27T13:05:52.653Z,19.37
2018-11-27T13:08:24.468Z,19.40
2018-11-27T13:10:53.064Z,19.10
2018-11-27T13:13:21.710Z,20.37
2018-11-27T13:15:50.434Z,20.30
2018-11-27T13:18:19.029Z,20.10
2018-11-27T13:20:47.653Z,19.67
2018-11-27T13:23:16.243Z,20.97
2018-11-27T13:25:45.061Z,20.90
2018-11-27T13:28:14.422Z,18.80
2018-11-27T13:30:45.811Z,20.90
2018-11-27T13:33:22.744Z,19.17
2018-11-27T13:35:51.454Z,20.60
2018-11-27T13:38:20.063Z,19.60
2018-11-27T13:40:48.774Z,20.20
2018-11-27T13:43:21.814Z,19.50
2018-11-27T13:45:50.385Z,19.83
2018-11-27T13:48:18.875Z,20.23
2018-11-27T13:50:47.825Z,19.23
2018-11-27T13:53:16.464Z,20.60
2018-11-27T13:55:45.116Z,21.17
2018-11-27T13:58:13.713Z,20.53
2018-11-27T14:00:42.359Z,21.03
2018-11-27T14:03:11.026Z,22.07
2018-11-27T14:05:39.512Z,20.10
2018-11-27T14:08:08.900Z,20.60
2018-11-27T14:10:38.408Z,20.47
2018-11-27T14:13:07.945Z,21.23
2018-11-27T14:15:37.097Z,20.67
2018-11-27T14:18:05.854Z,22.47
2018-11-27T14:20:34.337Z,21.23
2018-11-27T14:23:02.937Z,20.27
2018-11-27T14:25:31.580Z,20.80
2018-11-27T14:28:00.174Z,21.47
2018-11-27T14:30:28.729Z,20.47
2018-11-27T14:32:57.315Z,20.40
2018-11-27T14:35:26.036Z,20.73
2018-11-27T14:37:55.306Z,20.10
2018-11-27T14:40:25.327Z,21.83
2018-11-27T14:42:53.955Z,22.07
2018-11-27T14:45:23.721Z,21.83
2018-11-27T14:47:53.450Z,21.37
2018-11-27T14:50:22.084Z,22.67
2018-11-27T14:52:50.623Z,22.53
2018-11-27T14:55:23.403Z,22.80
2018-11-27T14:57:52.163Z,22.40
2018-11-27T15:00:21.808Z,24.50
2018-11-27T15:02:50.446Z,22.53
2018-11-27T15:05:24.558Z,22.57
2018-11-27T15:07:53.270Z,24.30
2018-11-27T15:10:21.984Z,22.20
2018-11-27T15:12:50.687Z,25.07
2018-11-27T15:15:19.275Z,22.77
2018-11-27T15:17:48.057Z,23.70
2018-11-27T15:20:18.632Z,23.33
2018-11-27T15:22:47.325Z,24.33
2018-11-27T15:25:16.333Z,22.93
2018-11-27T15:27:45.037Z,23.70
2018-11-27T15:30:20.610Z,22.87
2018-11-27T15:32:49.806Z,22.87
2018-11-27T15:35:18.429Z,23.40
2018-11-27T15:37:47.158Z,22.43
2018-11-27T15:40:16.707Z,15.33
2018-11-27T15:42:45.410Z,13.07
2018-11-27T15:45:16.929Z,12.60
2018-11-27T15:47:46.029Z,13.37
2018-11-27T15:50:14.713Z,13.63
2018-11-27T15:52:43.372Z,13.67
2018-11-27T15:55:18.347Z,13.27
2018-11-27T15:57:47.732Z,12.50
2018-11-27T16:00:19.195Z,13.20
2018-11-27T16:02:47.978Z,13.00
2018-11-27T16:05:17.174Z,13.27
2018-11-27T16:07:46.047Z,13.73
2018-11-27T16:10:16.691Z,13.57
2018-11-27T16:12:45.501Z,15.23
2018-11-27T16:15:15.999Z,14.03
2018-11-27T16:17:44.666Z,16.97
2018-11-27T16:20:18.383Z,18.77
2018-11-27T16:22:52.085Z,17.27
2018-11-27T16:25:21.758Z,17.60
2018-11-27T16:27:50.421Z,18.87
2018-11-27T16:30:24.148Z,18.90
2018-11-27T16:32:52.941Z,19.03
2018-11-27T16:35:21.557Z,18.37
2018-11-27T16:37:55.175Z,19.07
2018-11-27T16:40:27.004Z,19.33
2018-11-27T16:42:55.611Z,18.10
2018-11-27T16:45:24.716Z,22.77
2018-11-27T16:47:53.379Z,20.23
2018-11-27T16:50:22.002Z,18.87
2018-11-27T16:52:50.942Z,19.53
2018-11-27T16:55:21.635Z,20.03
2018-11-27T16:57:50.319Z,19.83
2018-11-27T17:00:24.785Z,18.87
2018-11-27T17:02:55.377Z,19.93
2018-11-27T17:05:24.229Z,19.97
2018-11-27T17:07:52.898Z,18.87
2018-11-27T17:10:21.841Z,20.80
2018-11-27T17:12:52.548Z,20.97
2018-11-27T17:15:22.295Z,19.20
2018-11-27T17:17:50.849Z,20.67
2018-11-27T17:20:22.356Z,20.83
2018-11-27T17:22:51.018Z,21.77
2018-11-27T17:25:20.421Z,21.40
2018-11-27T17:27:49.374Z,21.43
2018-11-27T17:30:22.641Z,21.50
2018-11-27T17:32:51.404Z,22.07
2018-11-27T17:35:20.329Z,21.93
2018-11-27T17:37:48.834Z,21.87
2018-11-27T17:40:17.380Z,22.03
2018-11-27T17:42:45.882Z,21.40
2018-11-27T17:45:15.167Z,22.50
2018-11-27T17:47:44.333Z,24.27
2018-11-27T17:50:14.792Z,21.27
2018-11-27T17:52:43.266Z,22.10
2018-11-27T17:55:12.534Z,21.20
2018-11-27T17:57:41.886Z,22.23
2018-11-27T18:00:19.369Z,21.27
2018-11-27T18:02:50.628Z,19.87
2018-11-27T18:05:19.435Z,22.73
2018-11-27T18:07:48.012Z,21.37
2018-11-27T18:10:16.484Z,19.63
2018-11-27T18:12:44.941Z,21.70
2018-11-27T18:15:15.646Z,21.13
2018-11-27T18:17:44.213Z,22.80
2018-11-27T18:20:13.131Z,21.73
2018-11-27T18:22:41.640Z,22.03
2018-11-27T18:25:13.383Z,21.67
2018-11-27T18:27:42.494Z,21.07
2018-11-27T18:30:13.028Z,21.20
2018-11-27T18:32:41.478Z,20.60
2018-11-27T18:35:13.274Z,21.03
2018-11-27T18:37:41.814Z,20.27
2018-11-27T18:40:11.487Z,19.03
2018-11-27T18:42:41.586Z,20.53
2018-11-27T18:45:13.288Z,19.40
2018-11-27T18:47:41.836Z,18.97
2018-11-27T18:50:11.035Z,19.10
2018-11-27T18:52:39.585Z,18.90
2018-11-27T18:55:11.209Z,19.00
2018-11-27T18:57:40.154Z,20.53
2018-11-27T19:00:12.591Z,19.23
2018-11-27T19:02:41.110Z,19.47
2018-11-27T19:05:10.072Z,19.30
2018-11-27T19:07:38.561Z,19.23
2018-11-27T19:10:12.674Z,19.47
2018-11-27T19:12:41.535Z,19.97
2018-11-27T19:15:15.519Z,19.50
2018-11-27T19:17:44.847Z,18.67
2018-11-27T19:20:13.617Z,18.70
2018-11-27T19:22:42.076Z,18.47
2018-11-27T19:25:14.508Z,18.47
2018-11-27T19:27:43.097Z,17.87
2018-11-27T19:30:16.233Z,19.00
2018-11-27T19:32:42.486Z,18.00
2018-11-27T19:35:11.923Z,19.30
2018-11-27T19:37:40.633Z,19.90
2018-11-27T19:40:11.248Z,19.23
2018-11-27T19:42:39.758Z,20.27
2018-11-27T19:45:10.603Z,19.73
2018-11-27T19:47:39.134Z,18.77
2018-11-27T19:50:10.480Z,18.93
2018-11-27T19:52:39.145Z,18.47
2018-11-27T19:55:09.461Z,20.03
2018-11-27T19:57:38.025Z,18.60
2018-11-27T20:00:10.805Z,19.33
2018-11-27T20:02:39.314Z,17.47
2018-11-27T20:05:09.500Z,17.20
2018-11-27T20:07:38.343Z,18.13
2018-11-27T20:10:10.068Z,17.00
2018-11-27T20:12:38.646Z,18.13
2018-11-27T20:15:14.395Z,17.57
2018-11-27T20:17:43.008Z,17.20
2018-11-27T20:20:12.640Z,18.03
2018-11-27T20:22:41.295Z,18.30
2018-11-27T20:25:11.167Z,18.97
2018-11-27T20:27:39.828Z,18.47
2018-11-27T20:30:11.762Z,18.93
2018-11-27T20:32:40.477Z,18.10
2018-11-27T20:35:10.746Z,18.60
2018-11-27T20:37:39.292Z,15.43
2018-11-27T20:40:14.566Z,15.27
2018-11-27T20:42:43.119Z,17.20
2018-11-27T20:45:26.761Z,16.13
2018-11-27T20:48:14.228Z,17.43
2018-11-27T20:50:42.771Z,17.07
2018-11-27T20:53:11.369Z,19.47
2018-11-27T20:55:39.837Z,17.33
2018-11-27T20:58:08.551Z,18.10
2018-11-27T21:00:38.495Z,18.20
2018-11-27T21:03:08.052Z,17.57
2018-11-27T21:05:36.831Z,19.23
2018-11-27T21:08:05.751Z,18.80
2018-11-27T21:10:34.339Z,19.67
2018-11-27T21:13:02.966Z,19.47
2018-11-27T21:15:31.770Z,18.57
2018-11-27T21:18:00.278Z,18.80
2018-11-27T21:20:28.785Z,19.97
2018-11-27T21:22:57.307Z,17.27
2018-11-27T21:25:26.102Z,20.30
2018-11-27T21:28:01.209Z,18.13
2018-11-27T21:30:29.728Z,18.80
2018-11-27T21:32:58.233Z,19.87
2018-11-27T21:35:26.730Z,19.50
2018-11-27T21:37:55.241Z,18.20
2018-11-27T21:40:23.700Z,18.50
2018-11-27T21:42:52.207Z,19.07
2018-11-27T21:45:24.532Z,18.53
2018-11-27T21:47:53.570Z,19.17
2018-11-27T21:50:27.962Z,18.30
2018-11-27T21:52:56.753Z,17.77
2018-11-27T21:55:25.249Z,19.13
2018-11-27T21:57:53.804Z,17.17
2018-11-27T22:00:23.441Z,17.17
2018-11-27T22:02:52.037Z,18.53
2018-11-27T22:05:20.501Z,17.37
2018-11-27T22:07:49.093Z,16.90
2018-11-27T22:10:18.883Z,17.60
2018-11-27T22:12:49.298Z,17.67
2018-11-27T22:15:19.393Z,16.80
2018-11-27T22:17:47.924Z,17.33
2018-11-27T22:20:21.378Z,18.33
2018-11-27T22:22:45.061Z,17.43
2018-11-27T22:25:13.750Z,17.80
2018-11-27T22:27:42.243Z,18.03
2018-11-27T22:30:12.919Z,17.47
2018-11-27T22:32:42.454Z,19.00
2018-11-27T22:35:11.128Z,17.83
2018-11-27T22:37:39.648Z,18.17
2018-11-27T22:40:10.582Z,18.57
2018-11-27T22:42:39.226Z,18.60
2018-11-27T22:45:10.626Z,19.27
2018-11-27T22:47:39.119Z,18.83
2018-11-27T22:50:11.348Z,18.00
2018-11-27T22:52:39.858Z,19.23
2018-11-27T22:55:08.903Z,19.50
2018-11-27T22:57:37.458Z,19.47
2018-11-27T23:00:33.659Z,19.57
2018-11-27T23:03:02.351Z,18.83
2018-11-27T23:05:30.927Z,19.67
2018-11-27T23:07:59.515Z,20.97
2018-11-27T23:10:32.622Z,20.77
2018-11-27T23:13:01.070Z,19.93
2018-11-27T23:15:29.605Z,20.03
2018-11-27T23:17:58.088Z,19.87
2018-11-27T23:20:26.596Z,20.90
2018-11-27T23:22:55.099Z,21.23
2018-11-27T23:25:24.117Z,20.83
2018-11-27T23:27:52.633Z,21.07
2018-11-27T23:30:22.751Z,19.97
2018-11-27T23:32:51.490Z,18.13
2018-11-27T23:35:20.154Z,19.13
2018-11-27T23:37:48.757Z,18.33
2018-11-27T23:40:18.351Z,18.27
2018-11-27T23:42:47.381Z,17.13
2018-11-27T23:45:17.102Z,18.53
2018-11-27T23:47:45.818Z,19.30
2018-11-27T23:50:15.561Z,17.97
2018-11-27T23:52:44.420Z,18.03
2018-11-27T23:55:13.841Z,18.87
2018-11-27T23:57:42.796Z,17.70
